sensor_id;sensor_type;location;lat;lon;timestamp;P1;durP1;ratioP1;P2;durP2;ratioP2
72797;SDS011;61084;55.816;37.036;2022-09-12T00:01:10;7.35;;;3.72;;
72797;SDS011;61084;55.816;37.036;2022-09-12T00:03:41;10.35;;;4.63;;
72797;SDS011;61084;55.816;37.036;2022-09-12T00:06:12;6.70;;;3.97;;
72797;SDS011;61084;55.816;37.036;2022-09-12T00:08:41;6.65;;;3.88;;
72797;SDS011;61084;55.816;37.036;2022-09-12T00:11:08;8.38;;;4.15;;
72797;SDS011;61084;55.816;37.036;2022-09-12T00:13:35;7.05;;;3.65;;
72797;SDS011;61084;55.816;37.036;2022-09-12T00:16:02;7.60;;;4.15;;
72797;SDS011;61084;55.816;37.036;2022-09-12T00:18:28;10.55;;;4.22;;
72797;SDS011;61084;55.816;37.036;2022-09-12T00:20:53;8.13;;;4.15;;
72797;SDS011;61084;55.816;37.036;2022-09-12T00:23:19;7.65;;;4.15;;
72797;SDS011;61084;55.816;37.036;2022-09-12T00:25:46;6.10;;;4.15;;
72797;SDS011;61084;55.816;37.036;2022-09-12T00:28:13;7.30;;;4.25;;
72797;SDS011;61084;55.816;37.036;2022-09-12T00:30:45;7.90;;;4.40;;
72797;SDS011;61084;55.816;37.036;2022-09-12T00:33:12;6.82;;;4.10;;
72797;SDS011;61084;55.816;37.036;2022-09-12T00:35:40;9.63;;;4.45;;
72797;SDS011;61084;55.816;37.036;2022-09-12T00:38:08;9.35;;;4.30;;
72797;SDS011;61084;55.816;37.036;2022-09-12T00:40:35;7.47;;;4.30;;
72797;SDS011;61084;55.816;37.036;2022-09-12T00:43:00;8.18;;;4.55;;
72797;SDS011;61084;55.816;37.036;2022-09-12T00:45:27;8.05;;;4.03;;
72797;SDS011;61084;55.816;37.036;2022-09-12T00:47:54;8.15;;;4.40;;
72797;SDS011;61084;55.816;37.036;2022-09-12T00:50:26;7.93;;;4.25;;
72797;SDS011;61084;55.816;37.036;2022-09-12T00:52:56;8.00;;;4.43;;
72797;SDS011;61084;55.816;37.036;2022-09-12T00:55:28;8.18;;;4.57;;
72797;SDS011;61084;55.816;37.036;2022-09-12T01:01:34;10.20;;;4.80;;
72797;SDS011;61084;55.816;37.036;2022-09-12T01:04:01;10.43;;;5.43;;
72797;SDS011;61084;55.816;37.036;2022-09-12T01:06:29;10.13;;;5.38;;
72797;SDS011;61084;55.816;37.036;2022-09-12T01:09:00;13.07;;;5.22;;
72797;SDS011;61084;55.816;37.036;2022-09-12T01:11:35;15.23;;;5.95;;
72797;SDS011;61084;55.816;37.036;2022-09-12T01:14:04;11.40;;;5.95;;
72797;SDS011;61084;55.816;37.036;2022-09-12T01:16:33;11.23;;;5.78;;
72797;SDS011;61084;55.816;37.036;2022-09-12T01:32:24;16.15;;;5.97;;
72797;SDS011;61084;55.816;37.036;2022-09-12T01:35:16;13.95;;;5.85;;
72797;SDS011;61084;55.816;37.036;2022-09-12T01:38:01;13.32;;;6.30;;
72797;SDS011;61084;55.816;37.036;2022-09-12T01:40:45;10.88;;;5.35;;
72797;SDS011;61084;55.816;37.036;2022-09-12T01:49:05;10.15;;;5.25;;
72797;SDS011;61084;55.816;37.036;2022-09-12T01:51:43;9.90;;;4.90;;
72797;SDS011;61084;55.816;37.036;2022-09-12T01:54:37;9.68;;;5.28;;
72797;SDS011;61084;55.816;37.036;2022-09-12T01:57:51;9.77;;;5.30;;
72797;SDS011;61084;55.816;37.036;2022-09-12T02:00:03;6.80;;;4.90;;
72797;SDS011;61084;55.816;37.036;2022-09-12T02:05:33;10.43;;;4.82;;
72797;SDS011;61084;55.816;37.036;2022-09-12T02:08:09;8.02;;;4.68;;
72797;SDS011;61084;55.816;37.036;2022-09-12T02:10:41;9.65;;;4.53;;
72797;SDS011;61084;55.816;37.036;2022-09-12T02:13:15;8.68;;;4.80;;
72797;SDS011;61084;55.816;37.036;2022-09-12T02:15:52;12.73;;;5.47;;
72797;SDS011;61084;55.816;37.036;2022-09-12T02:18:23;9.93;;;5.28;;
72797;SDS011;61084;55.816;37.036;2022-09-12T02:20:54;9.90;;;5.47;;
72797;SDS011;61084;55.816;37.036;2022-09-12T02:23:22;10.10;;;5.20;;
72797;SDS011;61084;55.816;37.036;2022-09-12T02:25:54;7.53;;;4.93;;
72797;SDS011;61084;55.816;37.036;2022-09-12T02:28:34;12.32;;;5.53;;
72797;SDS011;61084;55.816;37.036;2022-09-12T02:36:22;8.50;;;5.47;;
72797;SDS011;61084;55.816;37.036;2022-09-12T02:38:56;8.75;;;4.85;;
72797;SDS011;61084;55.816;37.036;2022-09-12T02:41:22;8.50;;;5.05;;
72797;SDS011;61084;55.816;37.036;2022-09-12T02:43:48;8.13;;;5.13;;
72797;SDS011;61084;55.816;37.036;2022-09-12T02:46:32;9.00;;;5.30;;
72797;SDS011;61084;55.816;37.036;2022-09-12T02:49:12;10.65;;;5.40;;
72797;SDS011;61084;55.816;37.036;2022-09-12T02:51:39;10.57;;;5.22;;
72797;SDS011;61084;55.816;37.036;2022-09-12T02:54:06;11.10;;;5.28;;
72797;SDS011;61084;55.816;37.036;2022-09-12T02:56:33;9.13;;;4.90;;
72797;SDS011;61084;55.816;37.036;2022-09-12T02:59:04;9.13;;;5.30;;
72797;SDS011;61084;55.816;37.036;2022-09-12T03:01:35;11.45;;;5.43;;
72797;SDS011;61084;55.816;37.036;2022-09-12T03:09:53;8.50;;;5.13;;
72797;SDS011;61084;55.816;37.036;2022-09-12T03:15:31;11.65;;;5.22;;
72797;SDS011;61084;55.816;37.036;2022-09-12T03:21:12;10.45;;;5.22;;
72797;SDS011;61084;55.816;37.036;2022-09-12T03:24:07;8.75;;;5.07;;
72797;SDS011;61084;55.816;37.036;2022-09-12T03:29:07;9.75;;;5.22;;
72797;SDS011;61084;55.816;37.036;2022-09-12T03:31:35;9.57;;;5.70;;
72797;SDS011;61084;55.816;37.036;2022-09-12T03:34:01;8.10;;;5.07;;
72797;SDS011;61084;55.816;37.036;2022-09-12T03:36:28;10.65;;;5.43;;
72797;SDS011;61084;55.816;37.036;2022-09-12T03:38:54;9.40;;;5.40;;
72797;SDS011;61084;55.816;37.036;2022-09-12T03:41:20;8.70;;;5.10;;
72797;SDS011;61084;55.816;37.036;2022-09-12T03:43:46;11.95;;;5.20;;
72797;SDS011;61084;55.816;37.036;2022-09-12T03:48:39;9.75;;;4.68;;
72797;SDS011;61084;55.816;37.036;2022-09-12T03:51:07;8.25;;;5.40;;
72797;SDS011;61084;55.816;37.036;2022-09-12T03:53:34;7.45;;;4.82;;
72797;SDS011;61084;55.816;37.036;2022-09-12T03:56:04;11.77;;;6.03;;
72797;SDS011;61084;55.816;37.036;2022-09-12T03:58:31;7.82;;;5.22;;
72797;SDS011;61084;55.816;37.036;2022-09-12T04:00:58;10.80;;;5.20;;
72797;SDS011;61084;55.816;37.036;2022-09-12T04:03:24;11.65;;;5.53;;
72797;SDS011;61084;55.816;37.036;2022-09-12T04:05:50;8.00;;;5.28;;
72797;SDS011;61084;55.816;37.036;2022-09-12T04:08:15;11.23;;;5.70;;
72797;SDS011;61084;55.816;37.036;2022-09-12T04:10:41;9.45;;;5.30;;
72797;SDS011;61084;55.816;37.036;2022-09-12T04:13:07;10.25;;;6.05;;
72797;SDS011;61084;55.816;37.036;2022-09-12T04:15:33;10.70;;;6.57;;
72797;SDS011;61084;55.816;37.036;2022-09-12T04:17:59;17.05;;;7.00;;
72797;SDS011;61084;55.816;37.036;2022-09-12T04:20:24;10.77;;;6.55;;
72797;SDS011;61084;55.816;37.036;2022-09-12T04:22:50;7.80;;;5.88;;
72797;SDS011;61084;55.816;37.036;2022-09-12T04:25:16;12.70;;;5.72;;
72797;SDS011;61084;55.816;37.036;2022-09-12T04:27:42;10.45;;;5.72;;
72797;SDS011;61084;55.816;37.036;2022-09-12T04:30:07;8.45;;;5.03;;
72797;SDS011;61084;55.816;37.036;2022-09-12T04:32:34;11.15;;;5.55;;
72797;SDS011;61084;55.816;37.036;2022-09-12T04:34:59;7.35;;;4.70;;
72797;SDS011;61084;55.816;37.036;2022-09-12T04:37:25;9.38;;;5.15;;
72797;SDS011;61084;55.816;37.036;2022-09-12T04:39:51;7.88;;;4.63;;
72797;SDS011;61084;55.816;37.036;2022-09-12T04:42:22;8.80;;;5.13;;
72797;SDS011;61084;55.816;37.036;2022-09-12T04:44:48;7.63;;;5.18;;
72797;SDS011;61084;55.816;37.036;2022-09-12T04:47:14;9.52;;;5.05;;
72797;SDS011;61084;55.816;37.036;2022-09-12T04:49:41;10.75;;;5.47;;
72797;SDS011;61084;55.816;37.036;2022-09-12T04:52:06;8.93;;;5.55;;
72797;SDS011;61084;55.816;37.036;2022-09-12T04:54:32;7.43;;;5.13;;
72797;SDS011;61084;55.816;37.036;2022-09-12T04:56:59;10.20;;;5.55;;
72797;SDS011;61084;55.816;37.036;2022-09-12T04:59:25;8.98;;;5.47;;
72797;SDS011;61084;55.816;37.036;2022-09-12T05:01:51;9.73;;;5.28;;
72797;SDS011;61084;55.816;37.036;2022-09-12T05:04:17;10.98;;;6.10;;
72797;SDS011;61084;55.816;37.036;2022-09-12T05:06:42;10.73;;;6.05;;
72797;SDS011;61084;55.816;37.036;2022-09-12T05:09:12;11.18;;;6.07;;
72797;SDS011;61084;55.816;37.036;2022-09-12T05:11:39;11.98;;;6.47;;
72797;SDS011;61084;55.816;37.036;2022-09-12T05:14:08;9.23;;;6.32;;
72797;SDS011;61084;55.816;37.036;2022-09-12T05:16:35;11.63;;;5.68;;
72797;SDS011;61084;55.816;37.036;2022-09-12T05:19:01;10.13;;;6.07;;
72797;SDS011;61084;55.816;37.036;2022-09-12T05:21:27;8.93;;;6.32;;
72797;SDS011;61084;55.816;37.036;2022-09-12T05:23:53;8.75;;;5.45;;
72797;SDS011;61084;55.816;37.036;2022-09-12T05:26:20;7.07;;;5.25;;
72797;SDS011;61084;55.816;37.036;2022-09-12T05:33:44;8.73;;;5.60;;
72797;SDS011;61084;55.816;37.036;2022-09-12T05:36:21;10.70;;;5.88;;
72797;SDS011;61084;55.816;37.036;2022-09-12T05:38:51;8.82;;;5.47;;
72797;SDS011;61084;55.816;37.036;2022-09-12T05:41:19;10.90;;;5.80;;
72797;SDS011;61084;55.816;37.036;2022-09-12T05:43:49;10.30;;;5.60;;
72797;SDS011;61084;55.816;37.036;2022-09-12T05:46:18;10.18;;;5.82;;
72797;SDS011;61084;55.816;37.036;2022-09-12T05:48:45;10.80;;;5.45;;
72797;SDS011;61084;55.816;37.036;2022-09-12T05:51:13;9.45;;;5.53;;
72797;SDS011;61084;55.816;37.036;2022-09-12T05:53:48;11.10;;;5.97;;
72797;SDS011;61084;55.816;37.036;2022-09-12T05:56:17;8.38;;;5.68;;
72797;SDS011;61084;55.816;37.036;2022-09-12T05:58:46;16.90;;;6.38;;
72797;SDS011;61084;55.816;37.036;2022-09-12T06:01:16;8.43;;;5.20;;
72797;SDS011;61084;55.816;37.036;2022-09-12T06:03:47;10.25;;;5.20;;
72797;SDS011;61084;55.816;37.036;2022-09-12T06:06:17;8.65;;;5.00;;
72797;SDS011;61084;55.816;37.036;2022-09-12T06:08:45;12.20;;;5.05;;
72797;SDS011;61084;55.816;37.036;2022-09-12T06:11:14;10.77;;;5.30;;
72797;SDS011;61084;55.816;37.036;2022-09-12T06:13:42;7.18;;;4.78;;
72797;SDS011;61084;55.816;37.036;2022-09-12T06:16:09;7.70;;;4.82;;
72797;SDS011;61084;55.816;37.036;2022-09-12T06:18:40;8.57;;;4.93;;
72797;SDS011;61084;55.816;37.036;2022-09-12T06:21:07;9.43;;;5.15;;
72797;SDS011;61084;55.816;37.036;2022-09-12T06:23:35;9.70;;;5.28;;
72797;SDS011;61084;55.816;37.036;2022-09-12T06:26:02;8.85;;;5.88;;
72797;SDS011;61084;55.816;37.036;2022-09-12T06:28:30;8.35;;;5.00;;
72797;SDS011;61084;55.816;37.036;2022-09-12T06:31:07;8.13;;;4.93;;
72797;SDS011;61084;55.816;37.036;2022-09-12T06:33:36;8.25;;;4.72;;
72797;SDS011;61084;55.816;37.036;2022-09-12T06:36:04;8.52;;;5.15;;
72797;SDS011;61084;55.816;37.036;2022-09-12T06:38:32;8.98;;;4.80;;
72797;SDS011;61084;55.816;37.036;2022-09-12T06:40:58;9.13;;;5.40;;
72797;SDS011;61084;55.816;37.036;2022-09-12T06:43:25;8.15;;;5.28;;
72797;SDS011;61084;55.816;37.036;2022-09-12T06:45:52;7.30;;;4.93;;
72797;SDS011;61084;55.816;37.036;2022-09-12T06:48:18;9.23;;;4.95;;
72797;SDS011;61084;55.816;37.036;2022-09-12T06:50:53;12.23;;;5.45;;
72797;SDS011;61084;55.816;37.036;2022-09-12T06:53:23;8.95;;;5.07;;
72797;SDS011;61084;55.816;37.036;2022-09-12T06:58:26;9.43;;;4.95;;
72797;SDS011;61084;55.816;37.036;2022-09-12T07:01:00;7.40;;;4.20;;
72797;SDS011;61084;55.816;37.036;2022-09-12T07:03:49;8.07;;;4.70;;
72797;SDS011;61084;55.816;37.036;2022-09-12T07:06:21;8.82;;;5.15;;
72797;SDS011;61084;55.816;37.036;2022-09-12T07:08:56;10.52;;;5.25;;
72797;SDS011;61084;55.816;37.036;2022-09-12T07:11:24;11.13;;;5.47;;
72797;SDS011;61084;55.816;37.036;2022-09-12T07:13:53;8.40;;;5.13;;
72797;SDS011;61084;55.816;37.036;2022-09-12T07:16:23;11.35;;;5.53;;
72797;SDS011;61084;55.816;37.036;2022-09-12T07:18:50;9.63;;;5.15;;
72797;SDS011;61084;55.816;37.036;2022-09-12T07:21:17;13.73;;;5.28;;
72797;SDS011;61084;55.816;37.036;2022-09-12T07:23:44;10.80;;;5.38;;
72797;SDS011;61084;55.816;37.036;2022-09-12T07:26:10;7.70;;;5.40;;
72797;SDS011;61084;55.816;37.036;2022-09-12T07:28:37;9.20;;;5.10;;
72797;SDS011;61084;55.816;37.036;2022-09-12T07:31:08;9.65;;;5.18;;
72797;SDS011;61084;55.816;37.036;2022-09-12T07:33:36;12.63;;;6.47;;
72797;SDS011;61084;55.816;37.036;2022-09-12T07:36:04;10.57;;;6.10;;
72797;SDS011;61084;55.816;37.036;2022-09-12T07:38:31;14.48;;;6.35;;
72797;SDS011;61084;55.816;37.036;2022-09-12T07:40:57;9.35;;;5.53;;
72797;SDS011;61084;55.816;37.036;2022-09-12T07:43:23;9.68;;;6.10;;
72797;SDS011;61084;55.816;37.036;2022-09-12T07:45:55;10.57;;;5.43;;
72797;SDS011;61084;55.816;37.036;2022-09-12T07:48:22;11.15;;;4.75;;
72797;SDS011;61084;55.816;37.036;2022-09-12T07:50:56;11.18;;;5.35;;
72797;SDS011;61084;55.816;37.036;2022-09-12T07:53:29;10.45;;;4.75;;
72797;SDS011;61084;55.816;37.036;2022-09-12T07:55:57;12.98;;;5.35;;
72797;SDS011;61084;55.816;37.036;2022-09-12T07:58:23;9.02;;;4.63;;
72797;SDS011;61084;55.816;37.036;2022-09-12T08:00:49;8.95;;;4.63;;
72797;SDS011;61084;55.816;37.036;2022-09-12T08:03:15;10.15;;;4.00;;
72797;SDS011;61084;55.816;37.036;2022-09-12T08:05:41;24.38;;;4.70;;
72797;SDS011;61084;55.816;37.036;2022-09-12T08:08:08;12.18;;;4.68;;
72797;SDS011;61084;55.816;37.036;2022-09-12T08:10:34;10.30;;;4.22;;
72797;SDS011;61084;55.816;37.036;2022-09-12T08:13:00;10.60;;;4.07;;
72797;SDS011;61084;55.816;37.036;2022-09-12T08:15:28;7.43;;;3.75;;
72797;SDS011;61084;55.816;37.036;2022-09-12T08:17:55;10.98;;;4.25;;
72797;SDS011;61084;55.816;37.036;2022-09-12T08:20:21;8.07;;;4.40;;
72797;SDS011;61084;55.816;37.036;2022-09-12T08:22:47;9.13;;;4.57;;
72797;SDS011;61084;55.816;37.036;2022-09-12T08:27:40;9.73;;;3.97;;
72797;SDS011;61084;55.816;37.036;2022-09-12T08:30:07;7.50;;;3.80;;
72797;SDS011;61084;55.816;37.036;2022-09-12T08:32:34;5.68;;;3.40;;
72797;SDS011;61084;55.816;37.036;2022-09-12T08:35:00;10.25;;;3.65;;
72797;SDS011;61084;55.816;37.036;2022-09-12T08:37:28;7.97;;;3.70;;
72797;SDS011;61084;55.816;37.036;2022-09-12T08:39:55;6.15;;;3.65;;
72797;SDS011;61084;55.816;37.036;2022-09-12T08:43:09;5.72;;;3.20;;
72797;SDS011;61084;55.816;37.036;2022-09-12T08:45:39;7.47;;;3.63;;
72797;SDS011;61084;55.816;37.036;2022-09-12T08:48:12;7.50;;;3.42;;
72797;SDS011;61084;55.816;37.036;2022-09-12T08:50:38;11.75;;;3.45;;
72797;SDS011;61084;55.816;37.036;2022-09-12T08:53:15;6.43;;;3.25;;
72797;SDS011;61084;55.816;37.036;2022-09-12T08:55:52;5.25;;;3.28;;
72797;SDS011;61084;55.816;37.036;2022-09-12T08:58:23;6.03;;;3.53;;
72797;SDS011;61084;55.816;37.036;2022-09-12T09:18:04;9.80;;;4.40;;
72797;SDS011;61084;55.816;37.036;2022-09-12T09:20:58;9.27;;;4.00;;
72797;SDS011;61084;55.816;37.036;2022-09-12T09:28:56;5.95;;;3.42;;
72797;SDS011;61084;55.816;37.036;2022-09-12T09:31:27;5.00;;;3.65;;
72797;SDS011;61084;55.816;37.036;2022-09-12T09:33:58;6.97;;;3.92;;
72797;SDS011;61084;55.816;37.036;2022-09-12T09:36:35;10.85;;;4.32;;
72797;SDS011;61084;55.816;37.036;2022-09-12T09:44:46;8.48;;;3.92;;
72797;SDS011;61084;55.816;37.036;2022-09-12T09:47:13;10.05;;;3.72;;
72797;SDS011;61084;55.816;37.036;2022-09-12T09:49:39;7.72;;;3.78;;
72797;SDS011;61084;55.816;37.036;2022-09-12T09:52:06;6.28;;;4.15;;
72797;SDS011;61084;55.816;37.036;2022-09-12T10:05:45;9.30;;;4.47;;
72797;SDS011;61084;55.816;37.036;2022-09-12T10:08:46;9.30;;;4.78;;
72797;SDS011;61084;55.816;37.036;2022-09-12T10:11:16;7.78;;;4.07;;
72797;SDS011;61084;55.816;37.036;2022-09-12T10:16:19;10.90;;;4.55;;
72797;SDS011;61084;55.816;37.036;2022-09-12T10:18:56;13.27;;;5.25;;
72797;SDS011;61084;55.816;37.036;2022-09-12T10:26:51;11.02;;;5.22;;
72797;SDS011;61084;55.816;37.036;2022-09-12T10:29:29;19.15;;;5.43;;
72797;SDS011;61084;55.816;37.036;2022-09-12T10:31:57;9.57;;;4.90;;
72797;SDS011;61084;55.816;37.036;2022-09-12T10:37:09;10.02;;;5.38;;
72797;SDS011;61084;55.816;37.036;2022-09-12T10:39:48;12.38;;;5.20;;
72797;SDS011;61084;55.816;37.036;2022-09-12T10:45:17;11.77;;;5.38;;
72797;SDS011;61084;55.816;37.036;2022-09-12T10:47:48;11.10;;;5.30;;
72797;SDS011;61084;55.816;37.036;2022-09-12T10:50:18;9.13;;;5.03;;
72797;SDS011;61084;55.816;37.036;2022-09-12T10:52:46;11.60;;;5.03;;
72797;SDS011;61084;55.816;37.036;2022-09-12T10:55:14;15.40;;;5.35;;
72797;SDS011;61084;55.816;37.036;2022-09-12T11:00:21;9.07;;;4.82;;
72797;SDS011;61084;55.816;37.036;2022-09-12T11:02:57;8.40;;;4.80;;
72797;SDS011;61084;55.816;37.036;2022-09-12T11:30:36;14.38;;;5.65;;
72797;SDS011;61084;55.816;37.036;2022-09-12T11:35:58;16.52;;;6.60;;
72797;SDS011;61084;55.816;37.036;2022-09-12T11:38:49;17.67;;;7.10;;
72797;SDS011;61084;55.816;37.036;2022-09-12T11:41:29;13.35;;;6.50;;
72797;SDS011;61084;55.816;37.036;2022-09-12T11:44:11;11.35;;;6.10;;
72797;SDS011;61084;55.816;37.036;2022-09-12T11:46:43;13.50;;;6.68;;
72797;SDS011;61084;55.816;37.036;2022-09-12T11:51:43;13.43;;;6.00;;
72797;SDS011;61084;55.816;37.036;2022-09-12T11:54:32;14.82;;;6.65;;
72797;SDS011;61084;55.816;37.036;2022-09-12T11:57:10;17.55;;;6.93;;
72797;SDS011;61084;55.816;37.036;2022-09-12T11:59:52;15.32;;;7.07;;
72797;SDS011;61084;55.816;37.036;2022-09-12T12:08:30;15.65;;;7.50;;
72797;SDS011;61084;55.816;37.036;2022-09-12T12:10:58;11.98;;;6.53;;
72797;SDS011;61084;55.816;37.036;2022-09-12T12:13:33;14.52;;;7.47;;
72797;SDS011;61084;55.816;37.036;2022-09-12T12:16:01;15.43;;;7.97;;
72797;SDS011;61084;55.816;37.036;2022-09-12T12:18:31;16.77;;;7.45;;
72797;SDS011;61084;55.816;37.036;2022-09-12T12:21:20;19.90;;;8.45;;
72797;SDS011;61084;55.816;37.036;2022-09-12T12:29:03;15.30;;;7.85;;
72797;SDS011;61084;55.816;37.036;2022-09-12T12:31:29;19.02;;;8.73;;
72797;SDS011;61084;55.816;37.036;2022-09-12T12:34:02;16.42;;;8.77;;
72797;SDS011;61084;55.816;37.036;2022-09-12T12:36:34;21.02;;;8.55;;
72797;SDS011;61084;55.816;37.036;2022-09-12T12:41:57;25.65;;;8.88;;
72797;SDS011;61084;55.816;37.036;2022-09-12T12:50:00;20.10;;;8.60;;
72797;SDS011;61084;55.816;37.036;2022-09-12T12:52:30;19.48;;;8.07;;
72797;SDS011;61084;55.816;37.036;2022-09-12T12:55:14;22.25;;;8.90;;
72797;SDS011;61084;55.816;37.036;2022-09-12T12:57:46;23.27;;;8.88;;
72797;SDS011;61084;55.816;37.036;2022-09-12T13:02:55;21.13;;;8.88;;
72797;SDS011;61084;55.816;37.036;2022-09-12T13:05:25;13.68;;;7.45;;
72797;SDS011;61084;55.816;37.036;2022-09-12T13:08:05;15.20;;;7.55;;
72797;SDS011;61084;55.816;37.036;2022-09-12T13:10:32;18.75;;;8.70;;
72797;SDS011;61084;55.816;37.036;2022-09-12T13:15:49;18.35;;;8.18;;
72797;SDS011;61084;55.816;37.036;2022-09-12T13:18:28;19.50;;;8.77;;
72797;SDS011;61084;55.816;37.036;2022-09-12T13:21:16;18.20;;;8.90;;
72797;SDS011;61084;55.816;37.036;2022-09-12T13:23:44;18.05;;;8.13;;
72797;SDS011;61084;55.816;37.036;2022-09-12T13:26:25;20.27;;;8.00;;
72797;SDS011;61084;55.816;37.036;2022-09-12T13:29:10;17.83;;;7.70;;
72797;SDS011;61084;55.816;37.036;2022-09-12T13:31:44;17.98;;;7.55;;
72797;SDS011;61084;55.816;37.036;2022-09-12T13:34:18;15.05;;;7.03;;
72797;SDS011;61084;55.816;37.036;2022-09-12T13:37:13;15.95;;;8.00;;
72797;SDS011;61084;55.816;37.036;2022-09-12T13:40:36;16.35;;;8.05;;
72797;SDS011;61084;55.816;37.036;2022-09-12T13:43:35;21.95;;;9.27;;
72797;SDS011;61084;55.816;37.036;2022-09-12T13:46:12;19.98;;;9.18;;
72797;SDS011;61084;55.816;37.036;2022-09-12T13:48:43;20.75;;;9.02;;
72797;SDS011;61084;55.816;37.036;2022-09-12T13:51:18;18.77;;;8.50;;
72797;SDS011;61084;55.816;37.036;2022-09-12T13:53:48;20.70;;;9.55;;
72797;SDS011;61084;55.816;37.036;2022-09-12T13:56:16;26.83;;;9.32;;
72797;SDS011;61084;55.816;37.036;2022-09-12T13:58:56;19.15;;;9.75;;
72797;SDS011;61084;55.816;37.036;2022-09-12T14:04:17;23.88;;;10.02;;
72797;SDS011;61084;55.816;37.036;2022-09-12T14:09:43;24.30;;;10.07;;
72797;SDS011;61084;55.816;37.036;2022-09-12T14:12:12;25.58;;;9.60;;
72797;SDS011;61084;55.816;37.036;2022-09-12T14:14:49;22.10;;;9.15;;
72797;SDS011;61084;55.816;37.036;2022-09-12T14:17:18;22.75;;;9.80;;
72797;SDS011;61084;55.816;37.036;2022-09-12T14:20:02;20.58;;;8.48;;
72797;SDS011;61084;55.816;37.036;2022-09-12T14:22:31;22.13;;;7.90;;
72797;SDS011;61084;55.816;37.036;2022-09-12T14:24:59;18.08;;;7.80;;
72797;SDS011;61084;55.816;37.036;2022-09-12T14:27:35;25.48;;;7.43;;
72797;SDS011;61084;55.816;37.036;2022-09-12T14:36:09;12.88;;;6.13;;
72797;SDS011;61084;55.816;37.036;2022-09-12T14:38:39;17.70;;;6.85;;
72797;SDS011;61084;55.816;37.036;2022-09-12T14:41:07;12.48;;;6.10;;
72797;SDS011;61084;55.816;37.036;2022-09-12T14:43:38;11.75;;;5.90;;
72797;SDS011;61084;55.816;37.036;2022-09-12T14:46:22;12.57;;;5.90;;
72797;SDS011;61084;55.816;37.036;2022-09-12T14:48:52;10.20;;;5.63;;
72797;SDS011;61084;55.816;37.036;2022-09-12T14:51:30;14.15;;;6.32;;
72797;SDS011;61084;55.816;37.036;2022-09-12T14:53:58;17.58;;;5.95;;
72797;SDS011;61084;55.816;37.036;2022-09-12T15:00:03;13.20;;;5.85;;
72797;SDS011;61084;55.816;37.036;2022-09-12T15:04:51;15.38;;;6.05;;
72797;SDS011;61084;55.816;37.036;2022-09-12T15:07:27;14.52;;;5.88;;
72797;SDS011;61084;55.816;37.036;2022-09-12T15:09:58;11.77;;;5.60;;
72797;SDS011;61084;55.816;37.036;2022-09-12T15:12:29;11.05;;;6.18;;
72797;SDS011;61084;55.816;37.036;2022-09-12T15:15:16;15.77;;;5.47;;
72797;SDS011;61084;55.816;37.036;2022-09-12T15:17:45;13.63;;;5.45;;
72797;SDS011;61084;55.816;37.036;2022-09-12T15:20:12;14.50;;;6.30;;
72797;SDS011;61084;55.816;37.036;2022-09-12T15:22:39;12.38;;;5.93;;
72797;SDS011;61084;55.816;37.036;2022-09-12T15:25:06;9.30;;;5.10;;
72797;SDS011;61084;55.816;37.036;2022-09-12T15:27:36;14.13;;;6.03;;
72797;SDS011;61084;55.816;37.036;2022-09-12T15:30:05;13.68;;;5.82;;
72797;SDS011;61084;55.816;37.036;2022-09-12T15:32:33;10.23;;;5.25;;
72797;SDS011;61084;55.816;37.036;2022-09-12T15:34:59;10.57;;;5.18;;
72797;SDS011;61084;55.816;37.036;2022-09-12T15:37:24;9.38;;;4.93;;
72797;SDS011;61084;55.816;37.036;2022-09-12T15:39:50;14.45;;;5.63;;
72797;SDS011;61084;55.816;37.036;2022-09-12T15:42:17;13.10;;;5.25;;
72797;SDS011;61084;55.816;37.036;2022-09-12T15:44:49;12.90;;;5.55;;
72797;SDS011;61084;55.816;37.036;2022-09-12T15:47:15;9.48;;;4.85;;
72797;SDS011;61084;55.816;37.036;2022-09-12T15:49:41;10.80;;;5.03;;
72797;SDS011;61084;55.816;37.036;2022-09-12T15:52:08;10.73;;;5.05;;
72797;SDS011;61084;55.816;37.036;2022-09-12T15:54:39;11.95;;;4.82;;
72797;SDS011;61084;55.816;37.036;2022-09-12T15:57:05;10.27;;;5.13;;
72797;SDS011;61084;55.816;37.036;2022-09-12T15:59:32;12.43;;;4.80;;
72797;SDS011;61084;55.816;37.036;2022-09-12T16:01:58;13.60;;;4.85;;
72797;SDS011;61084;55.816;37.036;2022-09-12T16:04:24;12.15;;;4.35;;
72797;SDS011;61084;55.816;37.036;2022-09-12T16:06:52;10.15;;;5.65;;
72797;SDS011;61084;55.816;37.036;2022-09-12T16:09:19;9.18;;;4.65;;
72797;SDS011;61084;55.816;37.036;2022-09-12T16:11:46;13.15;;;4.45;;
72797;SDS011;61084;55.816;37.036;2022-09-12T16:14:12;8.55;;;4.25;;
72797;SDS011;61084;55.816;37.036;2022-09-12T16:16:39;11.80;;;4.10;;
72797;SDS011;61084;55.816;37.036;2022-09-12T16:19:06;9.35;;;4.10;;
72797;SDS011;61084;55.816;37.036;2022-09-12T16:21:33;9.25;;;4.57;;
72797;SDS011;61084;55.816;37.036;2022-09-12T16:23:59;9.77;;;3.85;;
72797;SDS011;61084;55.816;37.036;2022-09-12T16:26:25;10.07;;;4.15;;
72797;SDS011;61084;55.816;37.036;2022-09-12T16:28:57;10.38;;;4.18;;
72797;SDS011;61084;55.816;37.036;2022-09-12T16:31:24;10.60;;;4.57;;
72797;SDS011;61084;55.816;37.036;2022-09-12T16:33:51;11.43;;;4.13;;
72797;SDS011;61084;55.816;37.036;2022-09-12T16:36:18;8.27;;;4.32;;
72797;SDS011;61084;55.816;37.036;2022-09-12T16:38:49;11.10;;;4.20;;
72797;SDS011;61084;55.816;37.036;2022-09-12T16:41:17;9.57;;;4.18;;
72797;SDS011;61084;55.816;37.036;2022-09-12T16:43:44;9.05;;;4.10;;
72797;SDS011;61084;55.816;37.036;2022-09-12T16:46:20;7.35;;;4.20;;
72797;SDS011;61084;55.816;37.036;2022-09-12T16:48:53;7.93;;;4.10;;
72797;SDS011;61084;55.816;37.036;2022-09-12T16:51:21;11.77;;;4.70;;
72797;SDS011;61084;55.816;37.036;2022-09-12T16:53:50;9.82;;;4.30;;
72797;SDS011;61084;55.816;37.036;2022-09-12T16:56:16;11.80;;;4.63;;
72797;SDS011;61084;55.816;37.036;2022-09-12T16:58:42;10.18;;;4.97;;
72797;SDS011;61084;55.816;37.036;2022-09-12T17:03:40;9.48;;;4.43;;
72797;SDS011;61084;55.816;37.036;2022-09-12T17:06:07;9.48;;;4.13;;
72797;SDS011;61084;55.816;37.036;2022-09-12T17:08:40;7.57;;;4.25;;
72797;SDS011;61084;55.816;37.036;2022-09-12T17:11:08;9.00;;;4.70;;
72797;SDS011;61084;55.816;37.036;2022-09-12T17:13:35;10.65;;;4.25;;
72797;SDS011;61084;55.816;37.036;2022-09-12T17:16:08;10.50;;;4.25;;
72797;SDS011;61084;55.816;37.036;2022-09-12T17:18:36;11.85;;;4.88;;
72797;SDS011;61084;55.816;37.036;2022-09-12T17:23:30;14.80;;;5.50;;
72797;SDS011;61084;55.816;37.036;2022-09-12T17:25:55;12.38;;;5.60;;
72797;SDS011;61084;55.816;37.036;2022-09-12T17:28:21;11.40;;;5.18;;
72797;SDS011;61084;55.816;37.036;2022-09-12T17:30:53;12.95;;;6.55;;
72797;SDS011;61084;55.816;37.036;2022-09-12T17:33:19;10.13;;;4.60;;
72797;SDS011;61084;55.816;37.036;2022-09-12T17:35:45;9.50;;;5.05;;
72797;SDS011;61084;55.816;37.036;2022-09-12T17:38:11;10.57;;;4.32;;
72797;SDS011;61084;55.816;37.036;2022-09-12T17:40:37;8.65;;;4.97;;
72797;SDS011;61084;55.816;37.036;2022-09-12T17:43:03;7.82;;;4.40;;
72797;SDS011;61084;55.816;37.036;2022-09-12T17:45:28;12.63;;;5.40;;
72797;SDS011;61084;55.816;37.036;2022-09-12T17:47:54;9.25;;;5.35;;
72797;SDS011;61084;55.816;37.036;2022-09-12T17:50:20;10.70;;;5.10;;
72797;SDS011;61084;55.816;37.036;2022-09-12T17:52:46;15.90;;;5.85;;
72797;SDS011;61084;55.816;37.036;2022-09-12T17:55:12;11.85;;;5.43;;
72797;SDS011;61084;55.816;37.036;2022-09-12T17:57:39;13.45;;;4.90;;